createdAt,value
2018-07-30T00:00:53.147Z,47.93
2018-07-30T00:03:20.814Z,48.67
2018-07-30T00:05:48.477Z,48.05
2018-07-30T00:08:16.089Z,49.10
2018-07-30T00:10:43.705Z,49.00
2018-07-30T00:13:11.380Z,48.79
2018-07-30T00:15:39.020Z,48.35
2018-07-30T00:18:06.990Z,49.24
2018-07-30T00:20:34.637Z,49.07
2018-07-30T00:23:02.479Z,48.07
2018-07-30T00:25:30.073Z,49.00
2018-07-30T00:27:57.748Z,49.45
2018-07-30T00:30:25.359Z,48.33
2018-07-30T00:32:53.001Z,48.36
2018-07-30T00:35:20.607Z,49.19
2018-07-30T00:37:48.325Z,49.13
2018-07-30T00:40:16.446Z,49.47
2018-07-30T00:42:47.389Z,48.49
2018-07-30T00:45:15.265Z,49.66
2018-07-30T00:47:42.946Z,49.24
2018-07-30T00:50:10.637Z,50.04
2018-07-30T00:52:38.417Z,51.00
2018-07-30T00:55:06.118Z,50.52
2018-07-30T00:57:33.921Z,51.13
2018-07-30T01:00:01.546Z,49.90
2018-07-30T01:02:29.225Z,49.94
2018-07-30T01:04:56.823Z,49.95
2018-07-30T01:07:24.454Z,50.03
2018-07-30T01:09:52.353Z,50.71
2018-07-30T01:12:20.006Z,51.02
2018-07-30T01:14:47.658Z,51.11
2018-07-30T01:17:15.296Z,50.76
2018-07-30T01:19:42.997Z,50.26
2018-07-30T01:22:10.708Z,51.13
2018-07-30T01:24:38.329Z,51.26
2018-07-30T01:27:05.989Z,50.83
2018-07-30T01:29:33.662Z,50.51
2018-07-30T01:32:01.269Z,51.02
2018-07-30T01:34:28.941Z,50.42
2018-07-30T01:36:56.513Z,51.09
2018-07-30T01:39:24.149Z,51.12
2018-07-30T01:41:51.846Z,51.04
2018-07-30T01:44:19.577Z,51.24
2018-07-30T01:46:47.270Z,50.61
2018-07-30T01:49:14.876Z,50.72
2018-07-30T01:51:42.493Z,51.77
2018-07-30T01:54:10.182Z,51.87
2018-07-30T01:56:37.781Z,52.54
2018-07-30T01:59:05.500Z,52.21
2018-07-30T02:01:33.142Z,52.57
2018-07-30T02:04:00.773Z,51.98
2018-07-30T02:06:28.477Z,52.35
2018-07-30T02:08:56.092Z,51.40
2018-07-30T02:11:23.925Z,51.16
2018-07-30T02:13:51.753Z,51.43
2018-07-30T02:16:19.389Z,51.37
2018-07-30T02:18:47.002Z,52.43
2018-07-30T02:21:14.841Z,51.68
2018-07-30T02:23:42.437Z,52.04
2018-07-30T02:26:10.090Z,52.04
2018-07-30T02:28:37.692Z,52.34
2018-07-30T02:31:05.769Z,51.57
2018-07-30T02:33:33.482Z,51.72
2018-07-30T02:36:01.093Z,51.71
2018-07-30T02:38:28.877Z,52.13
2018-07-30T02:40:56.533Z,51.88
2018-07-30T02:43:24.438Z,52.29
2018-07-30T02:45:52.085Z,53.16
2018-07-30T02:48:19.731Z,52.71
2018-07-30T02:50:47.465Z,53.48
2018-07-30T02:53:15.073Z,53.39
2018-07-30T02:55:42.757Z,53.72
2018-07-30T02:58:10.441Z,52.98
2018-07-30T03:00:38.062Z,53.79
2018-07-30T03:03:05.770Z,53.80
2018-07-30T03:05:33.381Z,53.26
2018-07-30T03:08:01.005Z,54.44
2018-07-30T03:10:36.196Z,54.44
2018-07-30T03:13:03.865Z,54.71
2018-07-30T03:15:31.477Z,54.86
2018-07-30T03:17:59.202Z,55.50
2018-07-30T03:20:26.817Z,54.63
2018-07-30T03:22:54.587Z,55.32
2018-07-30T03:25:22.319Z,55.77
2018-07-30T03:27:50.130Z,55.56
2018-07-30T03:30:17.829Z,55.76
2018-07-30T03:32:45.444Z,54.83
2018-07-30T03:35:13.152Z,55.50
2018-07-30T03:37:40.809Z,55.29
2018-07-30T03:40:08.449Z,55.66
2018-07-30T03:42:36.409Z,55.26
2018-07-30T03:45:06.217Z,55.22
2018-07-30T03:47:33.898Z,54.71
2018-07-30T03:50:01.560Z,54.89
2018-07-30T03:52:29.200Z,55.27
2018-07-30T03:54:56.878Z,55.38
2018-07-30T03:57:24.744Z,54.88
2018-07-30T03:59:52.486Z,55.69
2018-07-30T04:02:20.172Z,56.02
2018-07-30T04:04:47.813Z,55.80
2018-07-30T04:07:15.433Z,55.71
2018-07-30T04:09:43.121Z,55.92
2018-07-30T04:12:10.768Z,55.22
2018-07-30T04:14:38.425Z,55.09
2018-07-30T04:17:06.148Z,54.88
2018-07-30T04:19:33.825Z,54.89
2018-07-30T04:22:01.493Z,55.62
2018-07-30T04:24:29.065Z,55.02
2018-07-30T04:26:56.677Z,54.54
2018-07-30T04:29:24.574Z,54.86
2018-07-30T04:31:52.269Z,53.91
2018-07-30T04:34:19.917Z,54.43
2018-07-30T04:36:47.549Z,53.78
2018-07-30T04:39:16.277Z,54.07
2018-07-30T04:41:44.214Z,53.18
2018-07-30T04:44:11.822Z,54.24
2018-07-30T04:46:39.464Z,53.62
2018-07-30T04:49:07.129Z,53.79
2018-07-30T04:51:35.789Z,55.00
2018-07-30T04:54:04.348Z,54.39
2018-07-30T04:56:31.957Z,54.86
2018-07-30T04:58:59.570Z,54.32
2018-07-30T05:01:27.277Z,55.19
2018-07-30T05:03:54.967Z,55.46
2018-07-30T05:06:22.604Z,55.66
2018-07-30T05:08:50.236Z,54.79
2018-07-30T05:11:18.094Z,54.42
2018-07-30T05:13:46.448Z,54.40
2018-07-30T05:16:14.125Z,53.16
2018-07-30T05:18:41.880Z,52.77
2018-07-30T05:21:10.172Z,52.63
2018-07-30T05:23:37.869Z,52.04
2018-07-30T05:26:05.589Z,52.12
2018-07-30T05:28:33.238Z,52.00
2018-07-30T05:31:00.999Z,51.70
2018-07-30T05:33:28.649Z,51.51
2018-07-30T05:35:56.321Z,51.70
2018-07-30T05:38:23.924Z,51.77
2018-07-30T05:40:51.548Z,50.63
2018-07-30T05:43:19.204Z,50.39
2018-07-30T05:45:46.824Z,51.69
2018-07-30T05:48:14.442Z,50.77
2018-07-30T05:50:42.195Z,51.20
2018-07-30T05:53:09.811Z,50.89
2018-07-30T05:55:37.470Z,50.03
2018-07-30T05:58:05.332Z,51.52
2018-07-30T06:00:32.957Z,50.74
2018-07-30T06:03:00.702Z,50.12
2018-07-30T06:05:28.422Z,48.74
2018-07-30T06:07:56.173Z,49.87
2018-07-30T06:10:36.493Z,47.76
2018-07-30T06:13:04.150Z,44.87
2018-07-30T06:15:31.989Z,46.12
2018-07-30T06:18:00.529Z,44.63
2018-07-30T06:20:28.180Z,45.93
2018-07-30T06:22:55.945Z,44.99
2018-07-30T06:25:23.709Z,43.76
2018-07-30T06:27:51.351Z,43.90
2018-07-30T06:30:19.037Z,44.22
2018-07-30T06:32:46.709Z,43.76
2018-07-30T06:35:14.430Z,44.45
2018-07-30T06:37:42.117Z,42.82
2018-07-30T06:40:09.765Z,43.31
2018-07-30T06:42:37.422Z,43.87
2018-07-30T06:45:05.249Z,44.02
2018-07-30T06:47:32.893Z,42.57
2018-07-30T06:50:00.594Z,41.18
2018-07-30T06:52:28.230Z,41.56
2018-07-30T06:54:55.965Z,40.67
2018-07-30T06:57:23.618Z,40.45
2018-07-30T06:59:51.266Z,39.93
2018-07-30T07:02:18.946Z,38.00
2018-07-30T07:04:46.601Z,38.92
2018-07-30T07:07:14.518Z,38.00
2018-07-30T07:09:42.203Z,38.00
2018-07-30T07:12:09.877Z,38.34
2018-07-30T07:14:37.558Z,38.32
2018-07-30T07:17:05.798Z,37.20
2018-07-30T07:19:33.475Z,37.41
2018-07-30T07:22:01.197Z,37.22
2018-07-30T07:24:28.815Z,37.71
2018-07-30T07:26:56.509Z,37.21
2018-07-30T07:29:24.162Z,37.27
2018-07-30T07:31:51.818Z,36.79
2018-07-30T07:34:19.454Z,36.10
2018-07-30T07:36:47.097Z,37.19
2018-07-30T07:39:21.485Z,35.49
2018-07-30T07:41:49.237Z,35.57
2018-07-30T07:44:16.899Z,35.54
2018-07-30T07:46:44.637Z,35.20
2018-07-30T07:49:12.305Z,35.01
2018-07-30T07:51:40.012Z,34.95
2018-07-30T07:54:08.082Z,35.41
2018-07-30T07:56:35.709Z,35.70
2018-07-30T07:59:03.513Z,36.08
2018-07-30T08:01:31.217Z,35.90
2018-07-30T08:03:58.942Z,36.41
2018-07-30T08:06:26.562Z,35.78
2018-07-30T08:08:54.209Z,34.51
2018-07-30T08:11:21.917Z,35.42
2018-07-30T08:13:49.654Z,35.04
2018-07-30T08:16:17.291Z,35.63
2018-07-30T08:18:44.969Z,34.44
2018-07-30T08:21:12.633Z,34.43
2018-07-30T08:23:40.296Z,34.64
2018-07-30T08:26:07.924Z,34.74
2018-07-30T08:28:35.618Z,34.32
2018-07-30T08:31:03.242Z,34.44
2018-07-30T08:33:30.977Z,33.89
2018-07-30T08:35:58.647Z,33.80
2018-07-30T08:38:26.398Z,34.04
2018-07-30T08:40:54.029Z,33.45
2018-07-30T08:43:21.729Z,33.31
2018-07-30T08:45:49.341Z,33.40
2018-07-30T08:48:16.968Z,33.39
2018-07-30T08:50:44.712Z,33.56
2018-07-30T08:53:12.821Z,32.87
2018-07-30T08:55:40.514Z,34.05
2018-07-30T08:58:08.201Z,32.73
2018-07-30T09:00:35.830Z,33.63
2018-07-30T09:03:03.513Z,33.11
2018-07-30T09:05:31.157Z,32.82
2018-07-30T09:07:58.838Z,33.43
2018-07-30T09:10:36.145Z,32.56
2018-07-30T09:13:03.800Z,33.12
2018-07-30T09:15:31.483Z,32.61
2018-07-30T09:17:59.490Z,32.04
2018-07-30T09:20:27.161Z,32.73
2018-07-30T09:22:55.390Z,31.75
2018-07-30T09:25:23.178Z,31.75
2018-07-30T09:27:50.822Z,32.14
2018-07-30T09:30:18.597Z,32.33
2018-07-30T09:32:46.738Z,32.00
2018-07-30T09:35:14.414Z,31.44
2018-07-30T09:37:42.045Z,32.07
2018-07-30T09:40:09.713Z,32.34
2018-07-30T09:42:37.547Z,32.34
2018-07-30T09:45:05.469Z,32.05
2018-07-30T09:47:33.159Z,32.20
2018-07-30T09:50:00.902Z,32.77
2018-07-30T09:52:28.553Z,32.28
2018-07-30T09:54:56.253Z,31.27
2018-07-30T09:57:23.953Z,31.10
2018-07-30T09:59:51.629Z,31.66
2018-07-30T10:02:19.296Z,31.66
2018-07-30T10:04:46.950Z,31.04
2018-07-30T10:07:14.910Z,30.86
2018-07-30T10:09:42.584Z,31.43
2018-07-30T10:12:10.238Z,30.37
2018-07-30T10:14:37.894Z,30.30
2018-07-30T10:17:05.601Z,29.98
2018-07-30T10:19:33.206Z,29.23
2018-07-30T10:22:00.906Z,29.44
2018-07-30T10:24:28.552Z,29.46
2018-07-30T10:26:56.236Z,29.93
2018-07-30T10:29:23.930Z,28.40
2018-07-30T10:31:51.657Z,28.76
2018-07-30T10:34:19.268Z,27.75
2018-07-30T10:36:46.939Z,28.61
2018-07-30T10:39:14.614Z,28.54
2018-07-30T10:41:42.298Z,29.98
2018-07-30T10:44:09.925Z,29.17
2018-07-30T10:46:37.614Z,29.04
2018-07-30T10:49:05.258Z,29.16
2018-07-30T10:51:33.085Z,28.98
2018-07-30T10:54:00.861Z,29.02
2018-07-30T10:56:28.501Z,26.56
2018-07-30T10:58:56.253Z,26.83
2018-07-30T11:01:23.943Z,27.28
2018-07-30T11:03:51.903Z,26.81
2018-07-30T11:06:19.600Z,27.13
2018-07-30T11:08:47.280Z,26.38
2018-07-30T11:11:14.969Z,26.81
2018-07-30T11:13:42.613Z,26.24
2018-07-30T11:16:10.282Z,26.25
2018-07-30T11:18:37.966Z,25.98
2018-07-30T11:21:05.678Z,25.99
2018-07-30T11:23:33.406Z,25.33
2018-07-30T11:26:01.236Z,26.18
2018-07-30T11:28:29.007Z,27.67
2018-07-30T11:30:56.749Z,27.71
2018-07-30T11:33:24.449Z,26.91
2018-07-30T11:35:52.114Z,26.60
2018-07-30T11:38:19.832Z,26.35
2018-07-30T11:40:47.498Z,26.06
2018-07-30T11:43:15.214Z,25.46
2018-07-30T11:45:42.957Z,25.19
2018-07-30T11:48:10.590Z,25.73
2018-07-30T11:50:38.310Z,25.76
2018-07-30T11:53:06.007Z,25.31
2018-07-30T11:55:33.751Z,25.32
2018-07-30T11:58:01.420Z,25.18
2018-07-30T12:00:29.107Z,24.33
2018-07-30T12:02:56.743Z,23.91
2018-07-30T12:05:24.497Z,24.15
2018-07-30T12:07:52.154Z,23.44
2018-07-30T12:10:19.981Z,22.73
2018-07-30T12:12:47.651Z,22.71
2018-07-30T12:15:15.343Z,23.25
2018-07-30T12:17:42.998Z,22.05
2018-07-30T12:20:10.682Z,21.94
2018-07-30T12:22:38.417Z,21.76
2018-07-30T12:25:06.074Z,20.81
2018-07-30T12:27:33.698Z,20.77
2018-07-30T12:30:01.454Z,20.01
2018-07-30T12:32:29.090Z,20.06
2018-07-30T12:34:56.818Z,20.58
2018-07-30T12:37:24.529Z,21.02
2018-07-30T12:39:52.422Z,20.79
2018-07-30T12:42:20.273Z,20.94
2018-07-30T12:44:47.998Z,20.08
2018-07-30T12:47:16.377Z,19.49
2018-07-30T12:49:44.205Z,20.16
2018-07-30T12:52:12.055Z,18.90
2018-07-30T12:54:40.026Z,19.67
2018-07-30T12:57:07.805Z,19.78
2018-07-30T12:59:35.445Z,19.32
2018-07-30T13:02:03.218Z,20.15
2018-07-30T13:04:30.883Z,19.54
2018-07-30T13:06:59.285Z,20.24
2018-07-30T13:09:27.260Z,20.45
2018-07-30T13:11:54.977Z,19.93
2018-07-30T13:14:22.881Z,20.59
2018-07-30T13:16:50.598Z,19.93
2018-07-30T13:19:18.525Z,20.19
2018-07-30T13:21:46.405Z,20.95
2018-07-30T13:24:14.265Z,20.56
2018-07-30T13:26:43.095Z,20.27
2018-07-30T13:29:11.283Z,19.52
2018-07-30T13:31:39.213Z,19.68
2018-07-30T13:34:06.973Z,19.99
2018-07-30T13:36:34.709Z,19.91
2018-07-30T13:39:04.702Z,19.79
2018-07-30T13:41:33.770Z,19.42
2018-07-30T13:44:01.401Z,19.86
2018-07-30T13:46:29.159Z,19.82
2018-07-30T13:48:57.520Z,19.87
2018-07-30T13:51:25.177Z,19.23
2018-07-30T13:53:52.897Z,20.13
2018-07-30T13:56:20.565Z,19.94
2018-07-30T13:58:48.288Z,20.36
2018-07-30T14:01:15.976Z,19.88
2018-07-30T14:03:43.786Z,20.10
2018-07-30T14:06:11.434Z,20.53
2018-07-30T14:08:39.053Z,19.80
2018-07-30T14:11:06.713Z,20.67
2018-07-30T14:13:34.509Z,20.72
2018-07-30T14:16:02.213Z,20.04
2018-07-30T14:18:29.875Z,19.65
2018-07-30T14:20:57.625Z,19.89
2018-07-30T14:23:25.331Z,20.39
2018-07-30T14:25:52.985Z,20.18
2018-07-30T14:28:20.636Z,20.39
2018-07-30T14:30:48.369Z,19.80
2018-07-30T14:33:16.073Z,18.89
2018-07-30T14:35:43.799Z,19.55
2018-07-30T14:38:11.406Z,19.12
2018-07-30T14:40:39.029Z,19.33
2018-07-30T14:43:06.657Z,19.10
2018-07-30T14:45:34.609Z,19.51
2018-07-30T14:48:02.441Z,19.30
2018-07-30T14:50:30.176Z,19.50
2018-07-30T14:52:57.853Z,19.35
2018-07-30T14:55:25.477Z,19.15
2018-07-30T14:57:53.100Z,19.20
2018-07-30T15:00:20.749Z,19.08
2018-07-30T15:02:48.431Z,18.61
2018-07-30T15:05:19.813Z,18.42
2018-07-30T15:07:47.666Z,18.98
2018-07-30T15:10:34.841Z,18.85
2018-07-30T15:13:02.500Z,19.66
2018-07-30T15:15:30.269Z,20.00
2018-07-30T15:17:57.973Z,18.57
2018-07-30T15:20:25.707Z,18.25
2018-07-30T15:22:53.366Z,18.10
2018-07-30T15:25:21.292Z,18.38
2018-07-30T15:27:49.058Z,18.44
2018-07-30T15:30:16.788Z,18.81
2018-07-30T15:32:44.434Z,18.42
2018-07-30T15:35:12.093Z,18.10
2018-07-30T15:37:39.757Z,18.30
2018-07-30T15:40:07.421Z,18.43
2018-07-30T15:42:35.085Z,18.23
2018-07-30T15:45:02.773Z,19.05
2018-07-30T15:47:30.458Z,19.12
2018-07-30T15:49:58.072Z,18.47
2018-07-30T15:52:25.708Z,18.74
2018-07-30T15:54:53.510Z,18.59
2018-07-30T15:57:21.213Z,18.83
2018-07-30T15:59:48.845Z,19.31
2018-07-30T16:02:16.509Z,19.49
2018-07-30T16:04:44.167Z,19.29
2018-07-30T16:07:11.838Z,19.01
2018-07-30T16:09:39.555Z,19.35
2018-07-30T16:12:07.240Z,19.22
2018-07-30T16:14:34.937Z,19.37
2018-07-30T16:17:02.572Z,19.48
2018-07-30T16:19:30.264Z,19.85
2018-07-30T16:21:57.956Z,20.21
2018-07-30T16:24:25.607Z,20.24
2018-07-30T16:26:53.319Z,20.81
2018-07-30T16:29:20.994Z,20.79
2018-07-30T16:31:48.598Z,21.15
2018-07-30T16:34:16.341Z,22.18
2018-07-30T16:36:43.974Z,22.02
2018-07-30T16:39:11.653Z,22.24
2018-07-30T16:41:39.278Z,22.05
2018-07-30T16:44:07.349Z,21.36
2018-07-30T16:46:34.962Z,22.46
2018-07-30T16:49:02.622Z,26.29
2018-07-30T16:51:30.349Z,26.00
2018-07-30T16:53:58.022Z,33.48
2018-07-30T16:56:25.669Z,35.80
2018-07-30T16:58:53.354Z,37.37
2018-07-30T17:01:21.015Z,38.54
2018-07-30T17:03:48.641Z,40.35
2018-07-30T17:06:16.374Z,32.45
2018-07-30T17:08:44.684Z,37.51
2018-07-30T17:11:12.404Z,38.11
2018-07-30T17:13:40.045Z,35.57
2018-07-30T17:16:07.679Z,38.93
2018-07-30T17:18:35.368Z,40.92
2018-07-30T17:21:03.005Z,34.08
2018-07-30T17:23:30.678Z,38.72
2018-07-30T17:25:58.450Z,37.88
2018-07-30T17:28:26.109Z,37.33
2018-07-30T17:30:53.797Z,34.89
2018-07-30T17:33:21.449Z,34.58
2018-07-30T17:35:49.104Z,34.40
2018-07-30T17:38:16.853Z,35.31
2018-07-30T17:40:44.802Z,33.31
2018-07-30T17:43:13.561Z,33.57
2018-07-30T17:45:41.290Z,32.31
2018-07-30T17:48:09.008Z,33.29
2018-07-30T17:50:36.777Z,32.60
2018-07-30T17:53:05.923Z,34.53
2018-07-30T17:55:33.565Z,32.14
2018-07-30T17:58:02.097Z,32.77
2018-07-30T18:00:29.870Z,28.45
2018-07-30T18:02:58.849Z,29.90
2018-07-30T18:05:27.662Z,29.38
2018-07-30T18:07:55.381Z,27.30
2018-07-30T18:10:35.858Z,26.63
2018-07-30T18:13:03.675Z,26.27
2018-07-30T18:15:31.518Z,26.03
2018-07-30T18:17:59.497Z,24.51
2018-07-30T18:20:27.471Z,24.79
2018-07-30T18:22:55.151Z,25.18
2018-07-30T18:25:22.801Z,25.10
2018-07-30T18:27:50.481Z,26.71
2018-07-30T18:30:18.230Z,26.34
2018-07-30T18:32:45.834Z,25.96
2018-07-30T18:35:13.478Z,26.63
2018-07-30T18:37:41.149Z,26.54
2018-07-30T18:40:08.794Z,26.88
2018-07-30T18:42:36.478Z,26.32
2018-07-30T18:45:05.488Z,28.05
2018-07-30T18:47:33.132Z,29.05
2018-07-30T18:50:00.798Z,29.79
2018-07-30T18:52:28.481Z,31.20
2018-07-30T18:54:56.206Z,30.90
2018-07-30T18:57:23.896Z,31.59
2018-07-30T18:59:51.677Z,31.84
2018-07-30T19:02:19.431Z,32.88
2018-07-30T19:04:47.089Z,32.75
2018-07-30T19:07:14.778Z,33.20
2018-07-30T19:09:42.484Z,33.74
2018-07-30T19:12:10.217Z,33.79
2018-07-30T19:14:37.966Z,34.27
2018-07-30T19:17:05.607Z,34.69
2018-07-30T19:19:33.254Z,35.08
2018-07-30T19:22:01.137Z,35.66
2018-07-30T19:24:28.909Z,35.68
2018-07-30T19:26:56.513Z,36.03
2018-07-30T19:29:24.228Z,35.96
2018-07-30T19:31:51.947Z,36.01
2018-07-30T19:34:19.672Z,35.76
2018-07-30T19:36:47.317Z,34.99
2018-07-30T19:39:14.973Z,35.47
2018-07-30T19:41:42.671Z,35.15
2018-07-30T19:44:10.317Z,34.93
2018-07-30T19:46:38.142Z,36.18
2018-07-30T19:49:06.099Z,35.31
2018-07-30T19:51:33.933Z,36.00
2018-07-30T19:54:01.684Z,37.04
2018-07-30T19:56:29.300Z,36.99
2018-07-30T19:58:57.200Z,37.18
2018-07-30T20:01:24.745Z,38.65
2018-07-30T20:03:52.449Z,38.93
2018-07-30T20:06:20.163Z,39.31
2018-07-30T20:08:48.896Z,38.84
2018-07-30T20:11:16.578Z,38.71
2018-07-30T20:13:44.215Z,38.74
2018-07-30T20:16:12.084Z,37.95
2018-07-30T20:18:39.980Z,37.65
2018-07-30T20:21:07.593Z,37.77
2018-07-30T20:23:35.472Z,36.50
2018-07-30T20:26:03.367Z,38.82
2018-07-30T20:28:31.024Z,36.71
2018-07-30T20:30:58.754Z,36.71
2018-07-30T20:33:26.653Z,37.13
2018-07-30T20:35:54.280Z,38.44
2018-07-30T20:38:21.933Z,36.97
2018-07-30T20:40:49.553Z,37.29
2018-07-30T20:43:17.338Z,36.22
2018-07-30T20:45:45.022Z,36.90
2018-07-30T20:48:12.898Z,36.63
2018-07-30T20:50:40.539Z,36.83
2018-07-30T20:53:08.214Z,37.13
2018-07-30T20:55:35.853Z,37.02
2018-07-30T20:58:03.632Z,36.96
2018-07-30T21:00:32.089Z,37.20
2018-07-30T21:03:00.042Z,38.18
2018-07-30T21:05:30.880Z,37.33
2018-07-30T21:07:59.009Z,37.27
2018-07-30T21:10:36.722Z,37.23
2018-07-30T21:13:04.359Z,37.79
2018-07-30T21:15:31.989Z,37.67
2018-07-30T21:17:59.690Z,38.58
2018-07-30T21:20:27.317Z,39.64
2018-07-30T21:22:55.012Z,38.60
2018-07-30T21:25:22.769Z,38.39
2018-07-30T21:27:50.445Z,38.66
2018-07-30T21:30:18.096Z,38.48
2018-07-30T21:32:45.698Z,38.90
2018-07-30T21:35:13.409Z,38.68
2018-07-30T21:37:41.141Z,38.15
2018-07-30T21:40:08.766Z,39.23
2018-07-30T21:42:36.401Z,39.23
2018-07-30T21:45:04.092Z,40.01
2018-07-30T21:47:31.744Z,38.86
2018-07-30T21:49:59.416Z,38.28
2018-07-30T21:52:27.034Z,38.56
2018-07-30T21:54:54.749Z,39.19
2018-07-30T21:57:22.390Z,38.18
2018-07-30T21:59:50.018Z,38.28
2018-07-30T22:02:17.641Z,38.71
2018-07-30T22:04:45.352Z,39.23
2018-07-30T22:07:12.997Z,39.02
2018-07-30T22:09:40.714Z,40.03
2018-07-30T22:12:08.404Z,39.40
2018-07-30T22:14:36.031Z,38.43
2018-07-30T22:17:03.809Z,38.86
2018-07-30T22:19:31.451Z,39.11
2018-07-30T22:21:59.105Z,39.20
2018-07-30T22:24:26.702Z,39.53
2018-07-30T22:26:54.463Z,39.85
2018-07-30T22:29:22.115Z,40.79
2018-07-30T22:31:49.760Z,41.43
2018-07-30T22:34:17.425Z,41.46
2018-07-30T22:36:45.034Z,41.12
2018-07-30T22:39:13.069Z,41.26
2018-07-30T22:41:41.098Z,41.53
2018-07-30T22:44:08.732Z,41.87
2018-07-30T22:46:36.581Z,41.61
2018-07-30T22:49:04.257Z,41.61
2018-07-30T22:51:31.973Z,41.48
2018-07-30T22:53:59.593Z,41.47
2018-07-30T22:56:27.383Z,42.13
2018-07-30T22:58:55.028Z,41.82
2018-07-30T23:01:22.784Z,40.83
2018-07-30T23:03:50.430Z,42.29
2018-07-30T23:06:18.427Z,41.87
2018-07-30T23:08:46.078Z,41.69
2018-07-30T23:11:13.821Z,42.52
2018-07-30T23:13:41.479Z,42.47
2018-07-30T23:16:09.141Z,42.76
2018-07-30T23:18:36.788Z,42.60
2018-07-30T23:21:04.413Z,41.96
2018-07-30T23:23:32.089Z,42.92
2018-07-30T23:25:59.746Z,42.97
2018-07-30T23:28:27.686Z,42.26
2018-07-30T23:30:55.378Z,42.70
2018-07-30T23:33:23.061Z,43.21
2018-07-30T23:35:50.765Z,42.88
2018-07-30T23:38:18.689Z,43.34
2018-07-30T23:40:46.338Z,42.54
2018-07-30T23:43:14.038Z,42.78
2018-07-30T23:45:41.680Z,43.19
2018-07-30T23:48:09.313Z,43.73
2018-07-30T23:50:36.913Z,42.85
2018-07-30T23:53:04.595Z,42.91
2018-07-30T23:55:32.754Z,43.69
2018-07-30T23:58:00.449Z,44.19
